Michigan — WDF5344 — position and weather

sailwx.info

Track history (hours):
 
Tides and Currents Weather Stations Pressure Air Temp Water Temp Dewpoint Dewpoint Depression Visibility Wind Speed Wind Dir Waves Ship Positions

Michigan

Owner: GATX Third Aircraft Corporation, San Francisco, CA. More information available from US FCC via Universal Licensing System and Coast Guard Vessel Documentation Center.

Last reported at 2014-Oct-01 13:33 UTC. Time now 2014-Oct-01 14:27 UTC.
Position N 45°39' W 084°28'.

Length 144 m.

Type: Ship (hazmat cat D). MMSI: 303583000.

Date/timePositionNaut miles runAvg speedWind from/ knotsBaromVisibWave heightAir tempDewpointWater temp
2014-Oct-01 13:33N 45°39' W 084°28'0 0.0
2014-Oct-01 12:33N 45°39' W 084°28'0 0.0
2014-Oct-01 11:33N 45°39' W 084°28'0 0.0
2014-Oct-01 10:33N 45°39' W 084°28'0 0.0
2014-Oct-01 09:33N 45°39' W 084°28'2 2.1
2014-Oct-01 08:34N 45°41' W 084°27'10 9.9
2014-Oct-01 07:33N 45°47' W 084°38'1010.0
2014-Oct-01 06:34N 45°50' W 084°52'1010.0
2014-Oct-01 05:34N 45°51' W 085°06'1010.2
2014-Oct-01 04:33N 45°52' W 085°21'1010.2
2014-Oct-01 03:33N 45°53' W 085°35'1010.1
2014-Oct-01 02:33N 45°48' W 085°48'1010.2
2014-Oct-01 01:33N 45°43' W 086°01'1010.2
2014-Oct-01 00:34N 45°38' W 086°14'  
2014-Sep-28 14:07N 45°33' W 086°28'610.7
2014-Sep-28 13:33N 45°35' W 086°21'1110.5
2014-Sep-28 12:33N 45°41' W 086°08'1110.6
2014-Sep-28 11:33N 45°46' W 085°54'1110.5
2014-Sep-28 10:33N 45°51' W 085°41'1010.1
2014-Sep-28 09:33N 45°53' W 085°27'1110.6
2014-Sep-28 08:33N 45°52' W 085°12'1110.6
2014-Sep-28 07:33N 45°50' W 084°57'1110.5
2014-Sep-28 06:33N 45°48' W 084°42'1110.6
2014-Sep-28 05:33N 45°43' W 084°29'1010.3
2014-Sep-28 04:33N 45°40' W 084°15'266 6.2
2014-Sep-26 09:17N 42°38' W 079°44'810.7
2014-Sep-26 08:33N 42°42' W 079°35'1110.8
2014-Sep-26 07:33N 42°47' W 079°22'142 6.1
2014-Sep-25 08:08N 43°59' W 076°34'610.2
2014-Sep-25 07:33N 44°02' W 076°27'9 9.3
2014-Sep-25 06:33N 44°10' W 076°19'10 9.5
2014-Sep-25 05:33N 44°14' W 076°08'100 7.1
2014-Sep-24 15:33N 45°14' W 074°15'9 8.8
2014-Sep-24 14:31N 45°13' W 074°02'2 1.5
2014-Sep-24 13:17N 45°14' W 073°60'0 0.0
2014-Sep-24 12:26N 45°14' W 073°60'0 0.0
2014-Sep-24 11:33N 45°14' W 073°60'0 0.0
2014-Sep-24 10:31N 45°14' W 073°60'0 0.0
2014-Sep-24 09:33N 45°14' W 073°60'0 0.4
2014-Sep-24 08:33N 45°15' W 073°59'5 4.8
2014-Sep-24 07:33N 45°19' W 073°55'1 1.4
2014-Sep-24 06:33N 45°20' W 073°55'1 0.7
2014-Sep-24 05:33N 45°20' W 073°54'4 3.7
2014-Sep-24 04:33N 45°22' W 073°50'5 4.9
2014-Sep-24 03:33N 45°24' W 073°43'6 5.9
2014-Sep-24 02:33N 45°24' W 073°35'2 1.8
2014-Sep-24 01:33N 45°24' W 073°32'5 5.3
2014-Sep-24 00:33N 45°30' W 073°31'0 0.4
2014-Sep-23 23:33N 45°30' W 073°31'2 2.4
2014-Sep-23 22:33N 45°32' W 073°32'2 2.4
2014-Sep-23 21:33N 45°35' W 073°30'0 0.4
2014-Sep-23 20:33N 45°35' W 073°30'0 0.0
2014-Sep-23 19:33N 45°35' W 073°30'0 0.0
2014-Sep-23 18:33N 45°35' W 073°30'0 0.0
2014-Sep-23 17:33N 45°35' W 073°30'0 0.0
2014-Sep-23 16:33N 45°35' W 073°30'0 0.0
2014-Sep-23 15:33N 45°35' W 073°30'0 0.0
2014-Sep-23 14:33N 45°35' W 073°30'0 0.0
2014-Sep-23 13:33N 45°35' W 073°30'0 0.0
2014-Sep-23 12:33N 45°35' W 073°30'0 0.0
2014-Sep-23 11:33N 45°35' W 073°30'0 0.0
2014-Sep-23 10:33N 45°35' W 073°30'0 0.0
2014-Sep-23 09:33N 45°35' W 073°30'0 0.0
2014-Sep-23 08:33N 45°35' W 073°30'0 0.0
2014-Sep-23 07:33N 45°35' W 073°30'0 0.0
2014-Sep-23 06:33N 45°35' W 073°30'0 0.0
2014-Sep-23 05:33N 45°35' W 073°30'0 0.0
2014-Sep-23 04:33N 45°35' W 073°30'0 0.0
2014-Sep-23 03:33N 45°35' W 073°30'0 0.0
2014-Sep-23 02:33N 45°35' W 073°30'0 0.0
2014-Sep-23 01:33N 45°35' W 073°30'0 0.0
2014-Sep-23 00:33N 45°35' W 073°30'0 0.0
2014-Sep-22 23:33N 45°35' W 073°30'0 0.0
2014-Sep-22 22:33N 45°35' W 073°30'3 3.4
2014-Sep-22 21:33N 45°32' W 073°32'3 3.1
2014-Sep-22 20:33N 45°29' W 073°31'5 4.9
2014-Sep-22 19:33N 45°24' W 073°34'5 4.8
2014-Sep-22 18:33N 45°25' W 073°41'10 9.5
2014-Sep-22 17:33N 45°21' W 073°53'3 2.8
2014-Sep-22 16:33N 45°19' W 073°55'1 1.2
2014-Sep-22 15:33N 45°17' W 073°56'7 6.5
2014-Sep-22 14:33N 45°13' W 074°03'1010.3
2014-Sep-22 13:33N 45°12' W 074°18'103 7.9
2014-Sep-22 00:33N 44°12' W 076°15'9 9.2
2014-Sep-21 23:33N 44°06' W 076°24'1010.1
2014-Sep-21 22:33N 43°57' W 076°32'  
Track history (hours):
 
Tides and Currents Weather Stations Pressure Air Temp Water Temp Dewpoint Dewpoint Depression Visibility Wind Speed Wind Dir Waves Ship Positions

Michigan

Owner: GATX Third Aircraft Corporation, San Francisco, CA. More information available from US FCC via Universal Licensing System and Coast Guard Vessel Documentation Center.

Last reported at 2014-Oct-01 13:33 UTC. Time now 2014-Oct-01 14:27 UTC.
Position N 45°39' W 084°28'.

Length 144 m.

Type: Ship (hazmat cat D). MMSI: 303583000.

Date/timePositionNaut miles runAvg speedWind from/ knotsBaromVisibWave heightAir tempDewpointWater temp
2014-Oct-01 13:33N 45°39' W 084°28'0 0.0
2014-Oct-01 12:33N 45°39' W 084°28'0 0.0
2014-Oct-01 11:33N 45°39' W 084°28'0 0.0
2014-Oct-01 10:33N 45°39' W 084°28'0 0.0
2014-Oct-01 09:33N 45°39' W 084°28'2 2.1
2014-Oct-01 08:34N 45°41' W 084°27'10 9.9
2014-Oct-01 07:33N 45°47' W 084°38'1010.0
2014-Oct-01 06:34N 45°50' W 084°52'1010.0
2014-Oct-01 05:34N 45°51' W 085°06'1010.2
2014-Oct-01 04:33N 45°52' W 085°21'1010.2
2014-Oct-01 03:33N 45°53' W 085°35'1010.1
2014-Oct-01 02:33N 45°48' W 085°48'1010.2
2014-Oct-01 01:33N 45°43' W 086°01'1010.2
2014-Oct-01 00:34N 45°38' W 086°14'  
2014-Sep-28 14:07N 45°33' W 086°28'610.7
2014-Sep-28 13:33N 45°35' W 086°21'1110.5
2014-Sep-28 12:33N 45°41' W 086°08'1110.6
2014-Sep-28 11:33N 45°46' W 085°54'1110.5
2014-Sep-28 10:33N 45°51' W 085°41'1010.1
2014-Sep-28 09:33N 45°53' W 085°27'1110.6
2014-Sep-28 08:33N 45°52' W 085°12'1110.6
2014-Sep-28 07:33N 45°50' W 084°57'1110.5
2014-Sep-28 06:33N 45°48' W 084°42'1110.6
2014-Sep-28 05:33N 45°43' W 084°29'1010.3
2014-Sep-28 04:33N 45°40' W 084°15'266 6.2
2014-Sep-26 09:17N 42°38' W 079°44'810.7
2014-Sep-26 08:33N 42°42' W 079°35'1110.8
2014-Sep-26 07:33N 42°47' W 079°22'142 6.1
2014-Sep-25 08:08N 43°59' W 076°34'610.2
2014-Sep-25 07:33N 44°02' W 076°27'9 9.3
2014-Sep-25 06:33N 44°10' W 076°19'10 9.5
2014-Sep-25 05:33N 44°14' W 076°08'100 7.1
2014-Sep-24 15:33N 45°14' W 074°15'9 8.8
2014-Sep-24 14:31N 45°13' W 074°02'2 1.5
2014-Sep-24 13:17N 45°14' W 073°60'0 0.0
2014-Sep-24 12:26N 45°14' W 073°60'0 0.0
2014-Sep-24 11:33N 45°14' W 073°60'0 0.0
2014-Sep-24 10:31N 45°14' W 073°60'0 0.0
2014-Sep-24 09:33N 45°14' W 073°60'0 0.4
2014-Sep-24 08:33N 45°15' W 073°59'5 4.8
2014-Sep-24 07:33N 45°19' W 073°55'1 1.4
2014-Sep-24 06:33N 45°20' W 073°55'1 0.7
2014-Sep-24 05:33N 45°20' W 073°54'4 3.7
2014-Sep-24 04:33N 45°22' W 073°50'5 4.9
2014-Sep-24 03:33N 45°24' W 073°43'6 5.9
2014-Sep-24 02:33N 45°24' W 073°35'2 1.8
2014-Sep-24 01:33N 45°24' W 073°32'5 5.3
2014-Sep-24 00:33N 45°30' W 073°31'0 0.4
2014-Sep-23 23:33N 45°30' W 073°31'2 2.4
2014-Sep-23 22:33N 45°32' W 073°32'2 2.4
2014-Sep-23 21:33N 45°35' W 073°30'0 0.4
2014-Sep-23 20:33N 45°35' W 073°30'0 0.0
2014-Sep-23 19:33N 45°35' W 073°30'0 0.0
2014-Sep-23 18:33N 45°35' W 073°30'0 0.0
2014-Sep-23 17:33N 45°35' W 073°30'0 0.0
2014-Sep-23 16:33N 45°35' W 073°30'0 0.0
2014-Sep-23 15:33N 45°35' W 073°30'0 0.0
2014-Sep-23 14:33N 45°35' W 073°30'0 0.0
2014-Sep-23 13:33N 45°35' W 073°30'0 0.0
2014-Sep-23 12:33N 45°35' W 073°30'0 0.0
2014-Sep-23 11:33N 45°35' W 073°30'0 0.0
2014-Sep-23 10:33N 45°35' W 073°30'0 0.0
2014-Sep-23 09:33N 45°35' W 073°30'0 0.0
2014-Sep-23 08:33N 45°35' W 073°30'0 0.0
2014-Sep-23 07:33N 45°35' W 073°30'0 0.0
2014-Sep-23 06:33N 45°35' W 073°30'0 0.0
2014-Sep-23 05:33N 45°35' W 073°30'0 0.0
2014-Sep-23 04:33N 45°35' W 073°30'0 0.0
2014-Sep-23 03:33N 45°35' W 073°30'0 0.0
2014-Sep-23 02:33N 45°35' W 073°30'0 0.0
2014-Sep-23 01:33N 45°35' W 073°30'0 0.0
2014-Sep-23 00:33N 45°35' W 073°30'0 0.0
2014-Sep-22 23:33N 45°35' W 073°30'0 0.0
2014-Sep-22 22:33N 45°35' W 073°30'3 3.4
2014-Sep-22 21:33N 45°32' W 073°32'3 3.1
2014-Sep-22 20:33N 45°29' W 073°31'5 4.9
2014-Sep-22 19:33N 45°24' W 073°34'5 4.8
2014-Sep-22 18:33N 45°25' W 073°41'10 9.5
2014-Sep-22 17:33N 45°21' W 073°53'3 2.8
2014-Sep-22 16:33N 45°19' W 073°55'1 1.2
2014-Sep-22 15:33N 45°17' W 073°56'7 6.5
2014-Sep-22 14:33N 45°13' W 074°03'1010.3
2014-Sep-22 13:33N 45°12' W 074°18'103 7.9
2014-Sep-22 00:33N 44°12' W 076°15'9 9.2
2014-Sep-21 23:33N 44°06' W 076°24'1010.1
2014-Sep-21 22:33N 43°57' W 076°32'  

Dump ship's entire track history